createdAt,value
2022-12-15T00:00:02.235Z,17.83
2022-12-15T00:02:49.060Z,22.30
2022-12-15T00:05:34.908Z,19.27
2022-12-15T00:08:26.098Z,19.67
2022-12-15T00:11:11.636Z,16.73
2022-12-15T00:13:57.697Z,18.20
2022-12-15T00:16:43.632Z,20.20
2022-12-15T00:19:31.989Z,19.63
2022-12-15T00:22:17.961Z,20.63
2022-12-15T00:25:03.511Z,17.97
2022-12-15T00:27:50.882Z,18.17
2022-12-15T00:30:36.572Z,19.47
2022-12-15T00:33:27.774Z,20.80
2022-12-15T00:36:17.358Z,22.80
2022-12-15T00:38:46.369Z,20.13
2022-12-15T00:41:16.781Z,19.73
2022-12-15T00:43:46.230Z,19.83
2022-12-15T00:46:32.965Z,19.07
2022-12-15T00:49:01.666Z,20.07
2022-12-15T00:51:48.978Z,16.93
2022-12-15T00:54:34.730Z,21.20
2022-12-15T00:57:20.477Z,19.57
2022-12-15T01:00:06.258Z,18.27
2022-12-15T01:02:52.914Z,19.77
2022-12-15T01:05:39.383Z,20.53
2022-12-15T01:08:26.718Z,19.03
2022-12-15T01:11:12.666Z,21.77
2022-12-15T01:13:58.830Z,22.50
2022-12-15T01:16:44.480Z,23.10
2022-12-15T01:19:30.258Z,23.57
2022-12-15T01:21:58.727Z,22.70
2022-12-15T01:24:29.152Z,23.60
2022-12-15T01:26:58.190Z,25.47
2022-12-15T01:29:27.285Z,25.70
2022-12-15T01:31:56.520Z,22.97
2022-12-15T01:34:25.539Z,24.07
2022-12-15T01:36:54.319Z,22.80
2022-12-15T01:39:22.463Z,27.73
2022-12-15T01:41:50.900Z,27.00
2022-12-15T01:44:21.253Z,25.20
2022-12-15T01:46:51.711Z,23.77
2022-12-15T01:49:24.878Z,25.17
2022-12-15T01:51:59.067Z,25.47
2022-12-15T01:54:30.863Z,21.07
2022-12-15T01:57:06.427Z,17.67
2022-12-15T01:59:40.816Z,23.43
2022-12-15T02:02:10.476Z,24.10
2022-12-15T02:04:38.986Z,22.13
2022-12-15T02:07:07.379Z,22.43
2022-12-15T02:09:35.644Z,22.30
2022-12-15T02:12:15.440Z,20.20
2022-12-15T02:15:03.385Z,22.60
2022-12-15T02:17:42.641Z,22.83
2022-12-15T02:20:35.359Z,21.17
2022-12-15T02:23:40.824Z,23.47
2022-12-15T02:26:45.288Z,20.67
2022-12-15T02:29:29.986Z,22.73
2022-12-15T02:32:04.578Z,25.53
2022-12-15T02:34:41.679Z,22.00
2022-12-15T02:37:13.465Z,22.23
2022-12-15T02:39:42.199Z,22.30
2022-12-15T02:42:11.928Z,23.13
2022-12-15T02:44:44.147Z,24.90
2022-12-15T02:47:29.286Z,22.73
2022-12-15T02:50:22.674Z,22.10
2022-12-15T02:53:02.859Z,22.97
2022-12-15T02:55:39.119Z,21.47
2022-12-15T02:58:15.450Z,23.30
2022-12-15T03:00:48.616Z,21.37
2022-12-15T03:03:21.390Z,22.07
2022-12-15T03:05:53.573Z,18.70
2022-12-15T03:08:22.165Z,22.40
2022-12-15T03:10:52.559Z,22.33
2022-12-15T03:13:21.125Z,26.33
2022-12-15T03:15:49.971Z,19.50
2022-12-15T03:18:19.855Z,25.10
2022-12-15T03:20:48.528Z,24.67
2022-12-15T03:23:16.945Z,24.13
2022-12-15T03:25:49.913Z,27.67
2022-12-15T03:28:18.566Z,28.27
2022-12-15T03:30:50.461Z,28.93
2022-12-15T03:33:20.422Z,26.87
2022-12-15T03:35:49.920Z,27.57
2022-12-15T03:38:18.603Z,25.23
2022-12-15T03:40:47.379Z,23.70
2022-12-15T03:43:15.551Z,24.27
2022-12-15T03:45:43.769Z,24.90
2022-12-15T03:48:11.976Z,27.43
2022-12-15T03:50:41.883Z,28.00
2022-12-15T03:53:10.006Z,26.37
2022-12-15T03:55:38.126Z,24.67
2022-12-15T03:58:06.282Z,25.77
2022-12-15T04:00:34.617Z,25.87
2022-12-15T04:03:02.889Z,25.17
2022-12-15T04:05:32.483Z,25.67
2022-12-15T04:08:03.069Z,26.47
2022-12-15T04:10:34.629Z,27.07
2022-12-15T04:13:05.259Z,24.93
2022-12-15T04:15:33.709Z,25.30
2022-12-15T04:18:03.142Z,27.63
2022-12-15T04:20:31.296Z,25.03
2022-12-15T04:23:01.302Z,24.57
2022-12-15T04:25:47.090Z,25.47
2022-12-15T04:28:33.171Z,25.07
2022-12-15T04:31:21.196Z,25.63
2022-12-15T04:34:10.095Z,25.07
2022-12-15T04:36:58.623Z,27.20
2022-12-15T04:39:45.848Z,25.33
2022-12-15T04:42:31.955Z,24.90
2022-12-15T04:45:21.160Z,28.03
2022-12-15T04:48:07.321Z,26.23
2022-12-15T04:50:52.694Z,27.53
2022-12-15T04:53:38.944Z,26.40
2022-12-15T04:56:29.162Z,27.20
2022-12-15T04:59:14.558Z,26.10
2022-12-15T05:02:00.203Z,25.60
2022-12-15T05:04:46.184Z,24.33
2022-12-15T05:07:32.022Z,27.30
2022-12-15T05:10:17.355Z,30.33
2022-12-15T05:13:03.913Z,27.60
2022-12-15T05:15:51.172Z,26.03
2022-12-15T05:18:36.690Z,27.00
2022-12-15T05:21:22.628Z,23.90
2022-12-15T05:24:08.354Z,26.03
2022-12-15T05:26:54.004Z,28.40
2022-12-15T05:29:40.928Z,28.80
2022-12-15T05:32:09.452Z,26.63
2022-12-15T05:34:38.178Z,24.47
2022-12-15T05:37:07.518Z,27.53
2022-12-15T05:39:36.780Z,26.53
2022-12-15T05:42:05.164Z,24.77
2022-12-15T05:44:34.649Z,23.17
2022-12-15T05:47:02.750Z,23.23
2022-12-15T05:49:30.902Z,22.53
2022-12-15T05:51:59.005Z,22.00
2022-12-15T05:54:27.143Z,20.37
2022-12-15T05:56:55.207Z,23.67
2022-12-15T05:59:23.530Z,22.97
2022-12-15T06:01:53.048Z,26.93
2022-12-15T06:04:21.266Z,29.50
2022-12-15T06:06:49.367Z,29.33
2022-12-15T06:09:17.624Z,29.00
2022-12-15T06:11:46.036Z,20.63
2022-12-15T06:14:14.520Z,26.50
2022-12-15T06:16:50.646Z,23.13
2022-12-15T06:19:21.205Z,23.43
2022-12-15T06:21:49.553Z,18.10
2022-12-15T06:24:18.152Z,22.30
2022-12-15T06:26:46.490Z,23.03
2022-12-15T06:29:18.369Z,25.10
2022-12-15T06:31:46.862Z,29.43
2022-12-15T06:34:16.200Z,21.93
2022-12-15T06:36:45.655Z,24.60
2022-12-15T06:39:16.240Z,21.10
2022-12-15T06:41:45.360Z,22.40
2022-12-15T06:44:15.755Z,19.07
2022-12-15T06:46:46.158Z,17.37
2022-12-15T06:49:14.997Z,16.37
2022-12-15T06:51:44.154Z,20.70
2022-12-15T06:54:14.055Z,19.23
2022-12-15T06:56:42.393Z,18.60
2022-12-15T06:59:12.524Z,21.47
2022-12-15T07:01:41.925Z,18.30
2022-12-15T07:04:11.387Z,19.67
2022-12-15T07:06:40.930Z,21.93
2022-12-15T07:09:15.983Z,22.97
2022-12-15T07:11:44.297Z,19.47
2022-12-15T07:14:12.502Z,19.30
2022-12-15T07:16:41.213Z,18.90
2022-12-15T07:19:11.657Z,21.80
2022-12-15T07:21:39.743Z,23.17
2022-12-15T07:24:08.574Z,26.63
2022-12-15T07:26:38.228Z,26.90
2022-12-15T07:29:06.708Z,25.57
2022-12-15T07:31:34.805Z,30.67
2022-12-15T07:34:02.996Z,26.97
2022-12-15T07:36:31.150Z,27.77
2022-12-15T07:39:01.452Z,25.47
2022-12-15T07:41:30.213Z,23.90
2022-12-15T07:43:59.965Z,24.07
2022-12-15T07:46:29.215Z,25.27
2022-12-15T07:48:57.477Z,23.10
2022-12-15T07:51:25.645Z,24.17
2022-12-15T07:53:53.743Z,26.97
2022-12-15T07:56:22.348Z,29.23
2022-12-15T07:58:50.605Z,31.43
2022-12-15T08:01:20.295Z,30.03
2022-12-15T08:03:50.224Z,27.73
2022-12-15T08:06:18.412Z,26.77
2022-12-15T08:08:50.887Z,28.23
2022-12-15T08:11:21.013Z,25.73
2022-12-15T08:14:02.547Z,29.83
2022-12-15T08:16:34.806Z,32.23
2022-12-15T08:19:03.192Z,28.87
2022-12-15T08:21:32.232Z,26.93
2022-12-15T08:24:01.980Z,26.77
2022-12-15T08:26:31.511Z,27.23
2022-12-15T08:29:31.858Z,24.67
2022-12-15T08:31:54.115Z,24.47
2022-12-15T08:34:22.536Z,21.33
2022-12-15T08:36:51.064Z,20.20
2022-12-15T08:39:19.402Z,23.60
2022-12-15T08:41:47.591Z,24.93
2022-12-15T08:44:17.035Z,24.90
2022-12-15T08:46:45.851Z,28.33
2022-12-15T08:49:21.406Z,26.93
2022-12-15T08:51:50.604Z,28.63
2022-12-15T08:54:20.298Z,28.87
2022-12-15T08:56:48.553Z,25.53
2022-12-15T08:59:16.969Z,25.97
2022-12-15T09:01:45.316Z,21.87
2022-12-15T09:04:15.785Z,23.57
2022-12-15T09:06:44.335Z,21.87
2022-12-15T09:09:16.636Z,26.50
2022-12-15T09:11:44.699Z,22.70
2022-12-15T09:14:12.855Z,17.50
2022-12-15T09:16:41.157Z,23.70
2022-12-15T09:19:10.340Z,23.57
2022-12-15T09:21:42.988Z,25.73
2022-12-15T09:24:20.601Z,23.53
2022-12-15T09:26:54.517Z,21.27
2022-12-15T09:29:22.620Z,24.27
2022-12-15T09:31:51.675Z,24.00
2022-12-15T09:34:19.743Z,24.50
2022-12-15T09:36:49.326Z,21.23
2022-12-15T09:39:17.710Z,23.90
2022-12-15T09:41:54.533Z,23.43
2022-12-15T09:44:25.696Z,24.10
2022-12-15T09:47:06.103Z,20.03
2022-12-15T09:50:03.095Z,22.97
2022-12-15T09:52:34.536Z,21.93
2022-12-15T09:55:04.358Z,23.33
2022-12-15T09:57:38.417Z,24.53
2022-12-15T10:00:21.240Z,25.20
2022-12-15T10:03:20.593Z,28.33
2022-12-15T10:06:16.573Z,23.30
2022-12-15T10:08:50.979Z,26.23
2022-12-15T10:11:24.840Z,27.07
2022-12-15T10:13:57.734Z,24.07
2022-12-15T10:16:33.042Z,22.93
2022-12-15T10:19:08.266Z,23.63
2022-12-15T10:21:37.548Z,23.27
2022-12-15T10:24:31.876Z,26.17
2022-12-15T10:27:20.009Z,26.70
2022-12-15T10:29:52.805Z,24.17
2022-12-15T10:32:26.708Z,20.67
2022-12-15T10:34:54.854Z,24.60
2022-12-15T10:37:24.320Z,22.03
2022-12-15T10:39:53.788Z,23.33
2022-12-15T10:42:24.787Z,20.33
2022-12-15T10:44:54.825Z,22.77
2022-12-15T10:47:26.101Z,22.40
2022-12-15T10:49:54.854Z,23.07
2022-12-15T10:52:27.396Z,23.50
2022-12-15T10:54:57.580Z,23.10
2022-12-15T10:57:31.799Z,24.43
2022-12-15T11:00:29.424Z,27.07
2022-12-15T11:02:58.756Z,25.40
2022-12-15T11:05:28.472Z,25.13
2022-12-15T11:08:13.502Z,29.93
2022-12-15T11:11:09.577Z,23.10
2022-12-15T11:13:38.960Z,25.00
2022-12-15T11:16:17.087Z,23.20
2022-12-15T11:18:51.367Z,22.23
2022-12-15T11:21:23.861Z,21.40
2022-12-15T11:24:01.544Z,28.20
2022-12-15T11:26:44.285Z,45.63
2022-12-15T11:29:25.790Z,38.27
2022-12-15T11:31:55.148Z,23.07
2022-12-15T11:34:26.023Z,24.80
2022-12-15T11:37:15.035Z,25.40
2022-12-15T11:39:56.209Z,22.40
2022-12-15T11:42:34.435Z,24.70
2022-12-15T11:45:09.823Z,22.83
2022-12-15T11:47:57.214Z,25.80
2022-12-15T11:50:31.596Z,27.03
2022-12-15T11:53:19.679Z,24.80
2022-12-15T11:55:59.040Z,22.73
2022-12-15T11:58:48.629Z,23.23
2022-12-15T12:01:20.468Z,22.83
2022-12-15T12:04:02.430Z,18.73
2022-12-15T12:06:39.864Z,22.37
2022-12-15T12:09:22.534Z,22.50
2022-12-15T12:11:56.476Z,21.67
2022-12-15T12:14:45.751Z,21.47
2022-12-15T12:17:25.925Z,19.47
2022-12-15T12:19:59.026Z,22.03
2022-12-15T12:22:30.757Z,25.17
2022-12-15T12:25:02.297Z,25.87
2022-12-15T12:27:40.590Z,28.90
2022-12-15T12:30:15.048Z,22.63
2022-12-15T12:35:41.834Z,20.10
2022-12-15T12:38:15.003Z,20.70
2022-12-15T12:40:52.796Z,20.53
2022-12-15T12:43:34.108Z,22.73
2022-12-15T12:46:10.109Z,19.60
2022-12-15T12:48:44.232Z,21.33
2022-12-15T12:51:27.673Z,19.57
2022-12-15T12:53:56.271Z,20.03
2022-12-15T12:56:32.938Z,19.67
2022-12-15T12:59:01.167Z,18.73
2022-12-15T13:01:33.627Z,16.97
2022-12-15T13:04:09.896Z,18.63
2022-12-15T13:07:07.710Z,20.33
2022-12-15T13:09:41.642Z,19.63
2022-12-15T13:12:50.764Z,18.73
2022-12-15T13:15:32.829Z,17.70
2022-12-15T13:18:08.482Z,16.93
2022-12-15T13:20:38.311Z,17.10
2022-12-15T13:23:36.956Z,17.80
2022-12-15T13:26:19.119Z,15.83
2022-12-15T13:28:51.746Z,21.47
2022-12-15T13:31:34.599Z,23.07
2022-12-15T13:34:28.597Z,23.27
2022-12-15T13:36:58.699Z,22.07
2022-12-15T13:39:49.162Z,20.60
2022-12-15T13:42:37.393Z,21.60
2022-12-15T13:45:22.386Z,20.73
2022-12-15T13:47:56.356Z,18.37
2022-12-15T13:50:34.035Z,19.30
2022-12-15T13:53:20.406Z,18.57
2022-12-15T13:55:56.566Z,19.83
2022-12-15T13:58:25.754Z,23.97
2022-12-15T14:00:55.567Z,23.23
2022-12-15T14:03:24.267Z,24.73
2022-12-15T14:05:58.571Z,28.03
2022-12-15T14:08:29.691Z,31.23
2022-12-15T14:11:00.015Z,33.43
2022-12-15T14:13:31.790Z,33.30
2022-12-15T14:16:04.217Z,28.40
2022-12-15T15:03:12.733Z,24.13
2022-12-15T21:48:52.810Z,3.70
2022-12-15T21:51:21.505Z,3.17
2022-12-15T21:53:50.079Z,2.53
2022-12-15T21:56:20.928Z,3.33
2022-12-15T21:58:52.690Z,4.67
2022-12-15T22:01:25.175Z,3.43
2022-12-15T22:03:57.245Z,4.13
2022-12-15T22:06:27.286Z,6.47
2022-12-15T22:08:58.717Z,4.47
2022-12-15T22:11:29.278Z,4.87
2022-12-15T22:14:00.012Z,6.37
2022-12-15T22:16:28.608Z,6.20
2022-12-15T22:18:59.430Z,7.77
2022-12-15T22:21:27.703Z,7.60
2022-12-15T22:23:56.203Z,6.50
2022-12-15T22:26:28.434Z,7.63
2022-12-15T22:28:58.353Z,8.70
2022-12-15T22:31:27.251Z,18.13
2022-12-15T22:33:57.325Z,22.27
2022-12-15T22:36:25.916Z,19.40
2022-12-15T22:38:54.263Z,21.93
2022-12-15T22:41:24.924Z,27.77
2022-12-15T22:43:55.065Z,24.13
2022-12-15T22:46:28.805Z,19.20
2022-12-15T22:48:59.219Z,18.07
2022-12-15T22:51:28.137Z,19.57
2022-12-15T22:53:56.605Z,11.57
2022-12-15T22:56:27.547Z,10.07
2022-12-15T22:59:01.580Z,11.23
2022-12-15T23:01:31.080Z,11.10
2022-12-15T23:04:05.103Z,7.33
2022-12-15T23:06:33.748Z,8.77
2022-12-15T23:09:02.224Z,12.90
2022-12-15T23:11:38.519Z,5.37
2022-12-15T23:14:09.508Z,7.03
2022-12-15T23:16:38.311Z,5.90
2022-12-15T23:19:08.945Z,6.17
2022-12-15T23:21:38.096Z,4.80
2022-12-15T23:24:07.502Z,8.33
2022-12-15T23:26:37.256Z,5.33
2022-12-15T23:29:06.099Z,6.17
2022-12-15T23:31:34.292Z,8.03
2022-12-15T23:34:02.766Z,8.47
2022-12-15T23:36:32.392Z,6.73
2022-12-15T23:39:00.860Z,6.30
2022-12-15T23:41:30.644Z,6.13
2022-12-15T23:44:01.507Z,4.10
2022-12-15T23:46:30.186Z,3.77
2022-12-15T23:48:59.709Z,3.37
2022-12-15T23:51:27.929Z,4.50
2022-12-15T23:53:58.628Z,4.70
2022-12-15T23:56:27.647Z,6.10
2022-12-15T23:58:57.797Z,7.40
